EGOS

RAF Shawbury Airport

Shawbury, United Kingdom
METAR EGOS 160450Z AUTO 21010KT 9999 NCD 05/03 Q1001
Observed Flight Rules
Dec-16 @ 04:50 UTC (an hour ago) Visual Flight Rules
Wind Visibility Clouds
210° at 10 knots 10,000+ meters
  • Clear skies
Temperatures Readings
Current 5°C / 41°F
Dewpoint 3°C / 37°F
Humidity 87%
Altimeter 29.56" Hg
Pressure 1001 hPa
Elevation 76
METAR EGOS 160450Z AUTO 21010KT 9999 NCD 05/03 Q1001
Observed Flight Rules
Dec-16 @ 04:50 UTC
(an hour ago)
VFR
Wind Visibility
210° at 10 knots 10,000+ meters
Clouds
  • Clear skies
Temperature Dewpoint
5°C / 41°F 3°C / 37°F
Humidity Altimeter Pressure
87% 29.56" Hg 1001 hPa